createdAt,value
2023-05-20T00:01:38.610Z,3.85
2023-05-20T00:04:05.498Z,3.88
2023-05-20T00:06:32.376Z,3.95
2023-05-20T00:09:00.326Z,4.28
2023-05-20T00:11:27.067Z,3.65
2023-05-20T00:13:53.603Z,3.63
2023-05-20T00:16:20.511Z,3.75
2023-05-20T00:18:47.120Z,3.47
2023-05-20T00:21:13.683Z,4.00
2023-05-20T00:23:40.741Z,4.45
2023-05-20T00:26:07.263Z,4.32
2023-05-20T00:28:33.793Z,3.70
2023-05-20T00:31:00.450Z,4.65
2023-05-20T00:33:26.981Z,4.00
2023-05-20T00:35:53.508Z,3.90
2023-05-20T00:38:20.059Z,4.03
2023-05-20T00:40:46.587Z,4.30
2023-05-20T00:43:13.185Z,4.28
2023-05-20T00:45:39.787Z,4.00
2023-05-20T00:48:06.817Z,4.63
2023-05-20T00:50:33.408Z,4.47
2023-05-20T00:52:59.949Z,4.18
2023-05-20T00:55:26.506Z,4.75
2023-05-20T00:57:53.256Z,4.80
2023-05-20T01:00:19.956Z,4.80
2023-05-20T01:02:46.600Z,4.70
2023-05-20T01:05:13.178Z,4.28
2023-05-20T01:07:40.312Z,4.97
2023-05-20T01:10:07.335Z,4.70
2023-05-20T01:12:45.842Z,4.80
2023-05-20T01:15:12.927Z,4.60
2023-05-20T01:17:40.457Z,4.88
2023-05-20T01:20:10.271Z,4.80
2023-05-20T01:22:38.466Z,5.10
2023-05-20T01:25:05.382Z,4.28
2023-05-20T01:27:31.929Z,5.05
2023-05-20T01:29:58.629Z,4.47
2023-05-20T01:32:40.559Z,5.18
2023-05-20T01:35:07.458Z,4.50
2023-05-20T01:37:35.327Z,5.07
2023-05-20T01:40:01.876Z,4.97
2023-05-20T01:42:28.395Z,4.97
2023-05-20T01:44:54.935Z,5.43
2023-05-20T01:47:21.492Z,5.15
2023-05-20T01:49:49.448Z,5.40
2023-05-20T01:52:15.977Z,5.38
2023-05-20T01:54:42.537Z,4.90
2023-05-20T01:57:09.040Z,5.03
2023-05-20T01:59:35.626Z,5.47
2023-05-20T02:02:02.284Z,5.90
2023-05-20T02:04:29.006Z,5.70
2023-05-20T02:06:55.757Z,5.40
2023-05-20T02:09:22.358Z,5.30
2023-05-20T02:11:48.888Z,5.13
2023-05-20T02:14:15.422Z,5.70
2023-05-20T02:16:42.063Z,5.38
2023-05-20T02:19:12.731Z,5.38
2023-05-20T02:21:41.228Z,5.65
2023-05-20T02:24:08.043Z,5.82
2023-05-20T02:26:34.924Z,6.32
2023-05-20T02:29:01.597Z,5.57
2023-05-20T02:31:28.176Z,6.28
2023-05-20T02:33:54.815Z,6.00
2023-05-20T02:36:21.397Z,6.10
2023-05-20T02:38:48.425Z,5.93
2023-05-20T02:41:14.958Z,5.47
2023-05-20T02:43:41.482Z,6.18
2023-05-20T02:46:08.061Z,6.47
2023-05-20T02:48:34.605Z,6.57
2023-05-20T02:51:01.139Z,6.95
2023-05-20T02:53:27.698Z,6.40
2023-05-20T02:55:54.478Z,6.25
2023-05-20T02:58:26.242Z,6.60
2023-05-20T03:00:53.391Z,6.53
2023-05-20T03:03:19.958Z,6.50
2023-05-20T03:05:46.568Z,6.63
2023-05-20T03:08:13.490Z,6.72
2023-05-20T03:10:39.996Z,6.35
2023-05-20T03:13:08.794Z,6.85
2023-05-20T03:15:38.907Z,6.72
2023-05-20T03:18:06.126Z,6.97
2023-05-20T03:20:32.790Z,7.18
2023-05-20T03:22:59.548Z,6.65
2023-05-20T03:25:26.309Z,7.20
2023-05-20T03:27:52.953Z,7.70
2023-05-20T03:30:19.619Z,7.03
2023-05-20T03:32:46.221Z,7.45
2023-05-20T03:35:13.025Z,7.28
2023-05-20T03:37:39.950Z,7.55
2023-05-20T03:40:07.669Z,6.75
2023-05-20T03:42:34.609Z,7.18
2023-05-20T03:45:01.327Z,7.75
2023-05-20T03:47:28.218Z,6.85
2023-05-20T03:49:54.943Z,7.63
2023-05-20T03:52:21.609Z,7.55
2023-05-20T03:54:48.227Z,7.55
2023-05-20T03:57:14.764Z,7.35
2023-05-20T03:59:41.853Z,8.23
2023-05-20T04:02:08.513Z,7.95
2023-05-20T04:04:35.099Z,7.80
2023-05-20T04:07:01.804Z,7.72
2023-05-20T04:09:28.321Z,7.85
2023-05-20T04:11:54.830Z,8.35
2023-05-20T04:14:21.365Z,7.55
2023-05-20T04:16:48.221Z,8.50
2023-05-20T04:19:16.038Z,8.48
2023-05-20T04:21:43.339Z,7.65
2023-05-20T04:24:09.862Z,7.85
2023-05-20T04:26:36.421Z,7.95
2023-05-20T04:29:04.225Z,8.10
2023-05-20T04:31:31.030Z,7.85
2023-05-20T04:33:57.779Z,7.95
2023-05-20T04:36:28.849Z,8.30
2023-05-20T04:38:55.909Z,7.72
2023-05-20T04:41:22.543Z,7.72
2023-05-20T04:43:49.911Z,8.07
2023-05-20T04:46:16.782Z,7.80
2023-05-20T04:48:43.980Z,7.53
2023-05-20T04:51:10.985Z,7.38
2023-05-20T04:53:38.083Z,8.25
2023-05-20T04:56:05.694Z,8.25
2023-05-20T04:58:33.468Z,8.10
2023-05-20T05:01:00.100Z,7.97
2023-05-20T05:03:26.643Z,8.80
2023-05-20T05:05:56.720Z,9.30
2023-05-20T05:08:23.233Z,8.32
2023-05-20T05:10:49.793Z,8.40
2023-05-20T05:13:16.381Z,8.82
2023-05-20T05:15:42.940Z,9.18
2023-05-20T05:18:09.657Z,8.70
2023-05-20T05:20:36.429Z,8.70
2023-05-20T05:23:03.165Z,8.60
2023-05-20T05:25:30.001Z,8.75
2023-05-20T05:27:56.766Z,8.40
2023-05-20T05:30:23.338Z,8.98
2023-05-20T05:32:49.959Z,8.70
2023-05-20T05:35:16.821Z,9.35
2023-05-20T05:37:43.370Z,8.75
2023-05-20T05:40:10.747Z,8.40
2023-05-20T05:42:37.278Z,8.32
2023-05-20T05:45:04.033Z,8.75
2023-05-20T05:47:32.693Z,9.05
2023-05-20T05:50:00.096Z,8.60
2023-05-20T05:52:27.316Z,9.38
2023-05-20T05:54:54.248Z,8.32
2023-05-20T05:57:20.760Z,8.30
2023-05-20T05:59:47.300Z,7.90
2023-05-20T06:02:14.701Z,8.30
2023-05-20T06:04:41.746Z,7.45
2023-05-20T06:07:08.364Z,7.95
2023-05-20T06:09:35.140Z,8.63
2023-05-20T06:12:02.512Z,8.70
2023-05-20T06:14:29.200Z,9.10
2023-05-20T06:16:55.868Z,9.07
2023-05-20T06:19:22.546Z,8.43
2023-05-20T06:21:49.187Z,8.40
2023-05-20T06:24:16.073Z,7.57
2023-05-20T06:26:42.748Z,7.97
2023-05-20T06:29:09.276Z,8.20
2023-05-20T06:31:36.142Z,8.60
2023-05-20T06:34:02.784Z,7.82
2023-05-20T06:36:30.244Z,11.50
2023-05-20T06:38:57.743Z,7.57
2023-05-20T06:41:24.334Z,7.28
2023-05-20T06:43:53.196Z,6.93
2023-05-20T06:46:20.077Z,7.38
2023-05-20T06:48:46.669Z,7.00
2023-05-20T06:51:14.040Z,6.53
2023-05-20T06:53:40.673Z,6.70
2023-05-20T06:56:07.390Z,7.88
2023-05-20T06:58:33.969Z,7.55
2023-05-20T07:01:00.584Z,7.07
2023-05-20T07:03:27.186Z,6.57
2023-05-20T07:05:53.715Z,7.15
2023-05-20T07:08:20.555Z,7.00
2023-05-20T07:10:47.094Z,6.35
2023-05-20T07:13:13.889Z,6.90
2023-05-20T07:15:40.571Z,7.07
2023-05-20T07:18:07.305Z,5.65
2023-05-20T07:20:33.997Z,6.10
2023-05-20T07:23:01.286Z,5.57
2023-05-20T07:25:27.854Z,4.90
2023-05-20T07:27:54.425Z,5.72
2023-05-20T07:30:20.949Z,5.30
2023-05-20T07:32:47.577Z,5.85
2023-05-20T07:35:14.155Z,5.82
2023-05-20T07:37:40.738Z,5.00
2023-05-20T07:40:07.940Z,4.80
2023-05-20T07:42:35.064Z,5.50
2023-05-20T07:45:01.599Z,6.10
2023-05-20T07:47:28.234Z,5.03
2023-05-20T07:49:54.818Z,5.82
2023-05-20T07:52:21.414Z,4.88
2023-05-20T07:54:48.005Z,4.70
2023-05-20T07:57:14.492Z,5.13
2023-05-20T07:59:41.138Z,5.30
2023-05-20T08:02:08.458Z,4.70
2023-05-20T08:04:35.522Z,4.90
2023-05-20T08:07:02.207Z,4.97
2023-05-20T08:09:31.045Z,4.90
2023-05-20T08:11:57.560Z,5.40
2023-05-20T08:14:24.088Z,4.80
2023-05-20T08:16:52.978Z,4.97
2023-05-20T08:19:21.174Z,5.10
2023-05-20T08:21:48.426Z,5.20
2023-05-20T08:24:15.000Z,5.07
2023-05-20T08:26:41.557Z,5.32
2023-05-20T08:29:08.396Z,5.28
2023-05-20T08:31:35.222Z,5.82
2023-05-20T08:34:01.999Z,5.40
2023-05-20T08:36:28.552Z,4.85
2023-05-20T08:38:55.878Z,4.68
2023-05-20T08:41:22.621Z,5.25
2023-05-20T08:43:49.271Z,5.07
2023-05-20T08:46:18.197Z,5.47
2023-05-20T08:48:45.092Z,5.63
2023-05-20T08:51:11.674Z,5.78
2023-05-20T08:53:38.280Z,5.00
2023-05-20T08:56:05.023Z,5.43
2023-05-20T08:58:32.684Z,5.10
2023-05-20T09:00:59.329Z,5.32
2023-05-20T09:03:25.912Z,5.47
2023-05-20T09:06:03.994Z,5.30
2023-05-20T09:08:30.785Z,5.18
2023-05-20T09:10:57.298Z,5.65
2023-05-20T09:13:24.106Z,5.47
2023-05-20T09:15:50.899Z,5.30
2023-05-20T09:18:17.567Z,5.45
2023-05-20T09:20:50.879Z,5.35
2023-05-20T09:23:19.067Z,4.45
2023-05-20T09:25:45.702Z,4.90
2023-05-20T09:28:12.917Z,5.43
2023-05-20T09:30:39.444Z,5.38
2023-05-20T09:33:07.752Z,5.18
2023-05-20T09:35:36.698Z,5.05
2023-05-20T09:38:03.477Z,5.57
2023-05-20T09:40:30.019Z,5.75
2023-05-20T09:42:57.738Z,7.05
2023-05-20T09:45:24.615Z,5.93
2023-05-20T09:47:52.322Z,5.10
2023-05-20T09:50:21.440Z,4.72
2023-05-20T09:52:49.601Z,5.03
2023-05-20T09:55:19.906Z,4.70
2023-05-20T09:57:46.676Z,4.65
2023-05-20T10:00:15.151Z,4.80
2023-05-20T10:02:52.194Z,4.82
2023-05-20T10:05:24.225Z,4.75
2023-05-20T10:08:07.446Z,4.28
2023-05-20T10:10:48.520Z,4.43
2023-05-20T10:13:15.095Z,4.43
2023-05-20T10:16:34.210Z,4.07
2023-05-20T10:19:03.615Z,4.78
2023-05-20T10:21:31.433Z,4.78
2023-05-20T10:24:09.172Z,4.97
2023-05-20T10:26:39.339Z,4.18
2023-05-20T10:29:16.611Z,4.20
2023-05-20T10:31:49.034Z,5.00
2023-05-20T10:34:17.405Z,4.32
2023-05-20T10:36:58.128Z,4.28
2023-05-20T10:39:28.718Z,5.18
2023-05-20T10:42:15.430Z,5.15
2023-05-20T10:44:47.869Z,4.85
2023-05-20T10:49:47.392Z,4.07
2023-05-20T10:52:14.862Z,4.20
2023-05-20T10:54:51.488Z,4.45
2023-05-20T10:57:18.345Z,3.97
2023-05-20T10:59:44.937Z,4.68
2023-05-20T11:02:13.296Z,4.53
2023-05-20T11:04:39.945Z,4.47
2023-05-20T11:07:06.879Z,4.75
2023-05-20T11:09:34.280Z,4.50
2023-05-20T11:12:00.907Z,4.40
2023-05-20T11:14:30.547Z,4.38
2023-05-20T11:16:58.405Z,4.80
2023-05-20T11:19:28.139Z,5.38
2023-05-20T11:21:54.899Z,4.82
2023-05-20T11:24:28.105Z,4.45
2023-05-20T11:26:55.456Z,4.25
2023-05-20T11:29:22.495Z,4.35
2023-05-20T11:31:52.235Z,4.38
2023-05-20T11:34:26.849Z,4.40
2023-05-20T11:36:58.770Z,4.65
2023-05-20T11:39:27.521Z,4.68
2023-05-20T11:41:54.128Z,4.85
2023-05-20T11:44:21.178Z,4.80
2023-05-20T11:46:48.125Z,4.45
2023-05-20T11:49:15.214Z,4.50
2023-05-20T11:51:41.800Z,4.88
2023-05-20T11:54:08.688Z,5.28
2023-05-20T11:56:38.970Z,5.20
2023-05-20T11:59:06.247Z,5.00
2023-05-20T12:01:37.576Z,4.85
2023-05-20T12:04:06.947Z,4.93
2023-05-20T12:06:33.899Z,4.68
2023-05-20T12:09:03.972Z,4.93
2023-05-20T12:11:30.567Z,4.80
2023-05-20T12:13:57.103Z,4.68
2023-05-20T12:16:23.678Z,4.85
2023-05-20T12:18:50.432Z,5.38
2023-05-20T12:21:16.954Z,5.05
2023-05-20T12:23:43.486Z,5.43
2023-05-20T12:26:10.175Z,4.65
2023-05-20T12:28:36.720Z,5.25
2023-05-20T12:31:03.276Z,5.43
2023-05-20T12:33:29.851Z,5.30
2023-05-20T12:35:56.380Z,5.20
2023-05-20T12:38:22.857Z,5.45
2023-05-20T12:40:49.445Z,5.20
2023-05-20T12:43:16.154Z,6.00
2023-05-20T12:45:42.710Z,5.00
2023-05-20T12:48:09.296Z,5.18
2023-05-20T12:50:36.258Z,5.68
2023-05-20T12:53:03.032Z,5.32
2023-05-20T12:55:29.633Z,5.80
2023-05-20T12:57:56.340Z,5.70
2023-05-20T13:00:22.930Z,4.93
2023-05-20T13:02:49.674Z,4.95
2023-05-20T13:05:16.384Z,5.30
2023-05-20T13:07:42.977Z,5.18
2023-05-20T13:10:10.870Z,5.38
2023-05-20T13:12:37.801Z,5.22
2023-05-20T13:15:04.826Z,5.38
2023-05-20T13:17:31.929Z,5.43
2023-05-20T13:19:59.213Z,5.28
2023-05-20T13:22:25.715Z,4.80
2023-05-20T13:24:52.306Z,5.63
2023-05-20T13:27:18.804Z,5.28
2023-05-20T13:29:46.078Z,5.32
2023-05-20T13:32:12.633Z,5.03
2023-05-20T13:34:39.197Z,5.38
2023-05-20T13:37:06.082Z,5.10
2023-05-20T13:39:32.698Z,5.47
2023-05-20T13:41:59.596Z,6.55
2023-05-20T13:44:26.162Z,6.28
2023-05-20T13:46:52.856Z,5.57
2023-05-20T13:49:20.967Z,6.20
2023-05-20T13:51:47.503Z,5.88
2023-05-20T13:54:14.065Z,5.53
2023-05-20T13:56:40.608Z,5.10
2023-05-20T13:59:07.180Z,5.15
2023-05-20T14:01:33.990Z,5.40
2023-05-20T14:04:00.883Z,5.70
2023-05-20T14:06:29.302Z,5.50
2023-05-20T14:08:56.430Z,6.43
2023-05-20T14:11:23.017Z,5.30
2023-05-20T14:13:49.597Z,6.50
2023-05-20T14:16:16.271Z,5.05
2023-05-20T14:18:42.848Z,5.30
2023-05-20T14:21:09.436Z,5.72
2023-05-20T14:23:36.013Z,5.32
2023-05-20T14:26:02.560Z,5.20
2023-05-20T14:28:29.071Z,5.60
2023-05-20T14:30:55.680Z,5.47
2023-05-20T14:33:22.229Z,6.18
2023-05-20T14:35:48.759Z,5.95
2023-05-20T14:38:15.452Z,5.00
2023-05-20T14:40:41.978Z,5.38
2023-05-20T14:43:08.531Z,4.97
2023-05-20T14:45:35.067Z,5.55
2023-05-20T14:48:01.778Z,5.30
2023-05-20T14:50:30.715Z,5.05
2023-05-20T14:52:57.505Z,5.22
2023-05-20T14:55:24.035Z,5.15
2023-05-20T14:57:50.664Z,4.95
2023-05-20T15:00:17.279Z,5.28
2023-05-20T15:02:43.884Z,4.97
2023-05-20T15:05:12.004Z,5.57
2023-05-20T15:07:38.866Z,4.60
2023-05-20T15:10:05.673Z,5.10
2023-05-20T15:12:32.305Z,5.28
2023-05-20T15:14:58.922Z,4.90
2023-05-20T15:17:25.589Z,5.38
2023-05-20T15:19:52.200Z,5.32
2023-05-20T15:22:18.805Z,5.13
2023-05-20T15:24:45.337Z,5.10
2023-05-20T15:27:11.843Z,5.80
2023-05-20T15:29:40.705Z,5.40
2023-05-20T15:32:07.460Z,5.32
2023-05-20T15:34:34.110Z,5.43
2023-05-20T15:37:00.783Z,5.15
2023-05-20T15:39:28.346Z,5.60
2023-05-20T15:41:54.901Z,5.18
2023-05-20T15:44:21.533Z,5.13
2023-05-20T15:46:48.065Z,5.63
2023-05-20T15:49:14.641Z,5.10
2023-05-20T15:51:46.616Z,5.18
2023-05-20T15:54:22.190Z,5.07
2023-05-20T15:56:48.758Z,5.32
2023-05-20T15:59:15.433Z,5.13
2023-05-20T16:01:42.091Z,5.28
2023-05-20T16:04:08.672Z,5.88
2023-05-20T16:06:35.733Z,5.78
2023-05-20T16:09:02.699Z,5.40
2023-05-20T16:11:29.266Z,5.25
2023-05-20T16:13:55.950Z,4.93
2023-05-20T16:16:22.489Z,5.38
2023-05-20T16:18:49.411Z,5.00
2023-05-20T16:21:16.035Z,5.57
2023-05-20T16:23:42.545Z,5.60
2023-05-20T16:26:09.140Z,5.65
2023-05-20T16:28:35.634Z,5.28
2023-05-20T16:31:02.161Z,5.10
2023-05-20T16:33:28.692Z,5.15
2023-05-20T16:35:55.994Z,5.57
2023-05-20T16:38:22.689Z,5.00
2023-05-20T16:40:49.308Z,5.10
2023-05-20T16:43:15.897Z,5.18
2023-05-20T16:45:42.435Z,5.15
2023-05-20T16:48:09.037Z,5.28
2023-05-20T16:50:35.745Z,5.78
2023-05-20T16:53:02.375Z,5.15
2023-05-20T16:55:29.222Z,5.40
2023-05-20T16:57:55.714Z,4.78
2023-05-20T17:00:22.231Z,5.95
2023-05-20T17:02:48.897Z,5.20
2023-05-20T17:05:16.871Z,5.13
2023-05-20T17:07:43.591Z,5.75
2023-05-20T17:10:11.450Z,5.82
2023-05-20T17:12:38.048Z,5.40
2023-05-20T17:15:06.060Z,5.32
2023-05-20T17:17:32.646Z,5.68
2023-05-20T17:19:59.189Z,5.30
2023-05-20T17:22:25.968Z,5.10
2023-05-20T17:24:52.789Z,6.30
2023-05-20T17:27:19.382Z,6.03
2023-05-20T17:29:45.967Z,5.47
2023-05-20T17:32:12.569Z,5.68
2023-05-20T17:34:39.113Z,6.35
2023-05-20T17:37:05.808Z,5.40
2023-05-20T17:39:32.365Z,6.53
2023-05-20T17:41:58.910Z,5.40
2023-05-20T17:44:25.534Z,5.43
2023-05-20T17:46:52.233Z,5.75
2023-05-20T17:49:18.941Z,6.47
2023-05-20T17:51:46.143Z,5.68
2023-05-20T17:54:13.002Z,6.07
2023-05-20T17:56:39.623Z,5.18
2023-05-20T17:59:06.252Z,6.88
2023-05-20T18:01:33.302Z,5.78
2023-05-20T18:04:03.791Z,5.43
2023-05-20T18:06:34.467Z,5.95
2023-05-20T18:09:01.835Z,5.50
2023-05-20T18:11:28.460Z,5.65
2023-05-20T18:13:58.611Z,6.18
2023-05-20T18:16:28.773Z,5.85
2023-05-20T18:18:55.816Z,5.72
2023-05-20T18:21:22.839Z,5.70
2023-05-20T18:23:49.350Z,6.15
2023-05-20T18:26:16.109Z,5.93
2023-05-20T18:28:42.845Z,5.90
2023-05-20T18:31:09.384Z,6.30
2023-05-20T18:33:37.030Z,5.93
2023-05-20T18:36:03.935Z,5.93
2023-05-20T18:38:30.520Z,6.15
2023-05-20T18:40:57.018Z,6.05
2023-05-20T18:43:23.842Z,5.82
2023-05-20T18:45:50.425Z,6.38
2023-05-20T18:48:25.662Z,5.80
2023-05-20T18:50:53.742Z,6.20
2023-05-20T18:53:20.265Z,6.20
2023-05-20T18:55:47.361Z,6.60
2023-05-20T18:58:14.233Z,6.82
2023-05-20T19:00:41.226Z,6.13
2023-05-20T19:03:07.858Z,6.43
2023-05-20T19:05:34.751Z,6.85
2023-05-20T19:08:02.557Z,6.20
2023-05-20T19:10:29.512Z,6.78
2023-05-20T19:12:56.631Z,6.70
2023-05-20T19:15:23.215Z,6.20
2023-05-20T19:17:49.851Z,6.65
2023-05-20T19:20:16.584Z,6.55
2023-05-20T19:22:43.188Z,6.68
2023-05-20T19:25:10.006Z,7.10
2023-05-20T19:27:36.736Z,6.40
2023-05-20T19:30:03.849Z,6.85
2023-05-20T19:32:30.462Z,6.65
2023-05-20T19:34:57.353Z,6.97
2023-05-20T19:37:24.015Z,7.40
2023-05-20T19:39:50.558Z,6.88
2023-05-20T19:42:17.244Z,7.13
2023-05-20T19:44:46.480Z,7.35
2023-05-20T19:47:13.170Z,6.57
2023-05-20T19:49:39.821Z,7.10
2023-05-20T19:52:06.987Z,7.47
2023-05-20T19:54:33.757Z,6.70
2023-05-20T19:57:00.365Z,6.90
2023-05-20T19:59:26.934Z,7.10
2023-05-20T20:01:53.669Z,7.32
2023-05-20T20:04:20.463Z,6.80
2023-05-20T20:06:48.075Z,6.90
2023-05-20T20:09:15.251Z,7.15
2023-05-20T20:11:43.257Z,7.45
2023-05-20T20:14:10.064Z,7.70
2023-05-20T20:16:36.910Z,7.63
2023-05-20T20:19:04.737Z,7.88
2023-05-20T20:21:31.420Z,7.53
2023-05-20T20:23:58.033Z,7.82
2023-05-20T20:26:25.925Z,7.70
2023-05-20T20:28:52.676Z,7.85
2023-05-20T20:31:19.240Z,8.70
2023-05-20T20:33:45.928Z,8.20
2023-05-20T20:36:12.490Z,8.00
2023-05-20T20:38:39.028Z,7.78
2023-05-20T20:41:06.145Z,8.75
2023-05-20T20:43:34.686Z,8.52
2023-05-20T20:46:01.372Z,8.48
2023-05-20T20:48:27.995Z,9.02
2023-05-20T20:50:54.682Z,8.77
2023-05-20T20:53:21.707Z,8.68
2023-05-20T20:55:48.435Z,8.43
2023-05-20T20:58:15.624Z,8.48
2023-05-20T21:00:45.056Z,8.52
2023-05-20T21:03:12.706Z,8.32
2023-05-20T21:05:39.510Z,9.48
2023-05-20T21:08:08.332Z,8.65
2023-05-20T21:10:37.081Z,9.20
2023-05-20T21:13:03.853Z,8.18
2023-05-20T21:15:30.357Z,8.07
2023-05-20T21:17:57.026Z,7.28
2023-05-20T21:20:23.572Z,7.57
2023-05-20T21:22:50.126Z,9.02
2023-05-20T21:25:16.822Z,8.43
2023-05-20T21:27:43.341Z,8.15
2023-05-20T21:30:10.696Z,8.07
2023-05-20T21:32:37.507Z,8.60
2023-05-20T21:35:04.319Z,8.40
2023-05-20T21:37:31.154Z,8.30
2023-05-20T21:39:57.769Z,9.15
2023-05-20T21:42:24.319Z,8.07
2023-05-20T21:44:51.407Z,8.65
2023-05-20T21:47:18.189Z,8.90
2023-05-20T21:49:44.694Z,8.35
2023-05-20T21:52:11.210Z,8.30
2023-05-20T21:54:37.791Z,8.25
2023-05-20T21:57:04.401Z,8.52
2023-05-20T21:59:31.015Z,7.97
2023-05-20T22:01:58.165Z,8.15
2023-05-20T22:04:25.100Z,8.25
2023-05-20T22:06:51.858Z,8.65
2023-05-20T22:09:18.416Z,8.43
2023-05-20T22:11:45.219Z,8.95
2023-05-20T22:14:15.949Z,8.60
2023-05-20T22:16:48.639Z,7.88
2023-05-20T22:19:15.505Z,8.23
2023-05-20T22:21:50.280Z,8.30
2023-05-20T22:24:18.003Z,8.38
2023-05-20T22:26:44.668Z,8.27
2023-05-20T22:29:11.189Z,7.85
2023-05-20T22:31:38.178Z,8.48
2023-05-20T22:34:05.422Z,8.40
2023-05-20T22:36:33.947Z,8.18
2023-05-20T22:39:02.239Z,9.50
2023-05-20T22:41:28.861Z,8.88
2023-05-20T22:43:56.815Z,8.32
2023-05-20T22:46:24.047Z,9.15
2023-05-20T22:48:54.456Z,9.20
2023-05-20T22:51:21.575Z,8.75
2023-05-20T22:53:49.180Z,8.05
2023-05-20T22:56:15.711Z,10.07
2023-05-20T22:58:42.572Z,9.60
2023-05-20T23:01:09.576Z,9.52
2023-05-20T23:03:36.214Z,9.93
2023-05-20T23:06:02.749Z,9.43
2023-05-20T23:08:29.306Z,8.73
2023-05-20T23:10:56.026Z,8.60
2023-05-20T23:13:22.577Z,8.38
2023-05-20T23:15:50.104Z,9.35
2023-05-20T23:18:17.820Z,9.02
2023-05-20T23:20:44.434Z,8.55
2023-05-20T23:23:11.706Z,8.75
2023-05-20T23:25:38.923Z,8.63
2023-05-20T23:28:05.961Z,9.25
2023-05-20T23:30:32.504Z,8.70
2023-05-20T23:32:59.557Z,9.10
2023-05-20T23:35:26.276Z,9.02
2023-05-20T23:37:52.847Z,9.45
2023-05-20T23:40:19.396Z,8.82
2023-05-20T23:42:45.910Z,8.88
2023-05-20T23:45:12.644Z,8.70
2023-05-20T23:47:39.200Z,8.88
2023-05-20T23:50:05.981Z,8.80
2023-05-20T23:52:32.529Z,9.07
2023-05-20T23:54:59.949Z,8.95
2023-05-20T23:57:26.496Z,8.98
2023-05-20T23:59:53.352Z,8.90
